sensor_id;sensor_type;location;lat;lon;timestamp;P1;durP1;ratioP1;P2;durP2;ratioP2
69629;SDS011;56857;52.212;5.496;2024-02-26T00:00:04;8.07;;;4.67;;
69629;SDS011;56857;52.212;5.496;2024-02-26T00:02:30;7.55;;;4.32;;
69629;SDS011;56857;52.212;5.496;2024-02-26T00:04:55;7.23;;;4.03;;
69629;SDS011;56857;52.212;5.496;2024-02-26T00:07:20;7.83;;;4.50;;
69629;SDS011;56857;52.212;5.496;2024-02-26T00:09:45;8.60;;;4.97;;
69629;SDS011;56857;52.212;5.496;2024-02-26T00:12:11;9.57;;;4.40;;
69629;SDS011;56857;52.212;5.496;2024-02-26T00:14:36;8.30;;;4.53;;
69629;SDS011;56857;52.212;5.496;2024-02-26T00:17:01;8.60;;;4.60;;
69629;SDS011;56857;52.212;5.496;2024-02-26T00:19:27;7.47;;;5.13;;
69629;SDS011;56857;52.212;5.496;2024-02-26T00:21:52;8.17;;;4.90;;
69629;SDS011;56857;52.212;5.496;2024-02-26T00:24:17;9.93;;;5.57;;
69629;SDS011;56857;52.212;5.496;2024-02-26T00:26:42;7.83;;;5.10;;
69629;SDS011;56857;52.212;5.496;2024-02-26T00:29:08;9.50;;;5.20;;
69629;SDS011;56857;52.212;5.496;2024-02-26T00:31:33;8.83;;;4.80;;
69629;SDS011;56857;52.212;5.496;2024-02-26T00:33:58;8.80;;;5.28;;
69629;SDS011;56857;52.212;5.496;2024-02-26T00:36:23;10.83;;;4.93;;
69629;SDS011;56857;52.212;5.496;2024-02-26T00:38:49;10.25;;;5.72;;
69629;SDS011;56857;52.212;5.496;2024-02-26T00:41:14;7.88;;;4.93;;
69629;SDS011;56857;52.212;5.496;2024-02-26T00:43:39;8.00;;;4.97;;
69629;SDS011;56857;52.212;5.496;2024-02-26T00:46:05;10.38;;;5.30;;
69629;SDS011;56857;52.212;5.496;2024-02-26T00:48:30;10.07;;;5.23;;
69629;SDS011;56857;52.212;5.496;2024-02-26T00:50:55;8.10;;;5.18;;
69629;SDS011;56857;52.212;5.496;2024-02-26T00:53:20;9.23;;;5.37;;
69629;SDS011;56857;52.212;5.496;2024-02-26T00:55:46;10.17;;;5.43;;
69629;SDS011;56857;52.212;5.496;2024-02-26T00:58:11;11.65;;;5.10;;
69629;SDS011;56857;52.212;5.496;2024-02-26T01:00:36;7.73;;;5.13;;
69629;SDS011;56857;52.212;5.496;2024-02-26T01:03:01;9.67;;;5.60;;
69629;SDS011;56857;52.212;5.496;2024-02-26T01:05:27;9.27;;;5.60;;
69629;SDS011;56857;52.212;5.496;2024-02-26T01:07:52;7.97;;;4.57;;
69629;SDS011;56857;52.212;5.496;2024-02-26T01:10:17;9.77;;;5.60;;
69629;SDS011;56857;52.212;5.496;2024-02-26T01:12:42;8.85;;;5.05;;
69629;SDS011;56857;52.212;5.496;2024-02-26T01:15:08;9.33;;;4.83;;
69629;SDS011;56857;52.212;5.496;2024-02-26T01:17:33;9.63;;;5.60;;
69629;SDS011;56857;52.212;5.496;2024-02-26T01:19:58;8.70;;;5.33;;
69629;SDS011;56857;52.212;5.496;2024-02-26T01:22:24;9.90;;;5.72;;
69629;SDS011;56857;52.212;5.496;2024-02-26T01:24:49;9.02;;;4.68;;
69629;SDS011;56857;52.212;5.496;2024-02-26T01:27:15;11.48;;;5.70;;
69629;SDS011;56857;52.212;5.496;2024-02-26T01:29:40;9.00;;;5.33;;
69629;SDS011;56857;52.212;5.496;2024-02-26T01:32:05;8.90;;;5.20;;
69629;SDS011;56857;52.212;5.496;2024-02-26T01:34:31;9.70;;;5.40;;
69629;SDS011;56857;52.212;5.496;2024-02-26T01:36:56;11.50;;;5.50;;
69629;SDS011;56857;52.212;5.496;2024-02-26T01:39:21;10.63;;;5.63;;
69629;SDS011;56857;52.212;5.496;2024-02-26T01:41:47;9.50;;;5.30;;
69629;SDS011;56857;52.212;5.496;2024-02-26T01:44:12;10.17;;;5.33;;
69629;SDS011;56857;52.212;5.496;2024-02-26T01:46:37;10.60;;;6.07;;
69629;SDS011;56857;52.212;5.496;2024-02-26T01:49:03;9.45;;;5.55;;
69629;SDS011;56857;52.212;5.496;2024-02-26T01:51:28;9.98;;;5.88;;
69629;SDS011;56857;52.212;5.496;2024-02-26T01:53:55;9.55;;;4.93;;
69629;SDS011;56857;52.212;5.496;2024-02-26T01:56:21;9.10;;;4.53;;
69629;SDS011;56857;52.212;5.496;2024-02-26T01:58:47;10.25;;;5.13;;
69629;SDS011;56857;52.212;5.496;2024-02-26T02:01:13;8.95;;;5.53;;
69629;SDS011;56857;52.212;5.496;2024-02-26T02:03:41;13.38;;;5.85;;
69629;SDS011;56857;52.212;5.496;2024-02-26T02:06:07;9.15;;;5.22;;
69629;SDS011;56857;52.212;5.496;2024-02-26T02:08:32;9.52;;;5.10;;
69629;SDS011;56857;52.212;5.496;2024-02-26T02:10:59;11.23;;;5.80;;
69629;SDS011;56857;52.212;5.496;2024-02-26T02:13:24;12.73;;;5.70;;
69629;SDS011;56857;52.212;5.496;2024-02-26T02:15:49;10.07;;;5.60;;
69629;SDS011;56857;52.212;5.496;2024-02-26T02:18:14;12.82;;;6.10;;
69629;SDS011;56857;52.212;5.496;2024-02-26T02:20:40;10.18;;;5.65;;
69629;SDS011;56857;52.212;5.496;2024-02-26T02:23:05;10.70;;;6.27;;
69629;SDS011;56857;52.212;5.496;2024-02-26T02:25:30;11.13;;;5.33;;
69629;SDS011;56857;52.212;5.496;2024-02-26T02:27:55;9.97;;;5.10;;
69629;SDS011;56857;52.212;5.496;2024-02-26T02:30:23;10.23;;;6.22;;
69629;SDS011;56857;52.212;5.496;2024-02-26T02:32:50;13.02;;;5.90;;
69629;SDS011;56857;52.212;5.496;2024-02-26T02:35:15;9.60;;;5.65;;
69629;SDS011;56857;52.212;5.496;2024-02-26T02:37:41;10.05;;;6.13;;
69629;SDS011;56857;52.212;5.496;2024-02-26T02:40:08;10.55;;;6.03;;
69629;SDS011;56857;52.212;5.496;2024-02-26T02:42:33;10.93;;;5.57;;
69629;SDS011;56857;52.212;5.496;2024-02-26T02:44:58;12.47;;;6.50;;
69629;SDS011;56857;52.212;5.496;2024-02-26T02:47:44;11.95;;;7.00;;
69629;SDS011;56857;52.212;5.496;2024-02-26T02:50:09;11.47;;;6.10;;
69629;SDS011;56857;52.212;5.496;2024-02-26T02:52:34;14.18;;;6.43;;
69629;SDS011;56857;52.212;5.496;2024-02-26T02:54:59;12.53;;;6.43;;
69629;SDS011;56857;52.212;5.496;2024-02-26T02:57:25;12.10;;;6.57;;
69629;SDS011;56857;52.212;5.496;2024-02-26T02:59:50;11.13;;;6.43;;
69629;SDS011;56857;52.212;5.496;2024-02-26T03:02:15;12.37;;;6.77;;
69629;SDS011;56857;52.212;5.496;2024-02-26T03:04:40;12.90;;;6.73;;
69629;SDS011;56857;52.212;5.496;2024-02-26T03:07:06;13.32;;;6.95;;
69629;SDS011;56857;52.212;5.496;2024-02-26T03:09:31;12.82;;;6.97;;
69629;SDS011;56857;52.212;5.496;2024-02-26T03:11:56;13.53;;;7.50;;
69629;SDS011;56857;52.212;5.496;2024-02-26T03:14:21;13.03;;;7.47;;
69629;SDS011;56857;52.212;5.496;2024-02-26T03:16:47;19.43;;;7.43;;
69629;SDS011;56857;52.212;5.496;2024-02-26T03:19:15;13.60;;;6.60;;
69629;SDS011;56857;52.212;5.496;2024-02-26T03:21:40;14.07;;;6.90;;
69629;SDS011;56857;52.212;5.496;2024-02-26T03:24:06;11.63;;;6.57;;
69629;SDS011;56857;52.212;5.496;2024-02-26T03:26:31;13.57;;;7.40;;
69629;SDS011;56857;52.212;5.496;2024-02-26T03:28:56;12.40;;;6.63;;
69629;SDS011;56857;52.212;5.496;2024-02-26T03:31:22;12.03;;;6.80;;
69629;SDS011;56857;52.212;5.496;2024-02-26T03:33:47;13.27;;;6.60;;
69629;SDS011;56857;52.212;5.496;2024-02-26T03:36:12;12.77;;;6.55;;
69629;SDS011;56857;52.212;5.496;2024-02-26T03:38:38;12.27;;;6.77;;
69629;SDS011;56857;52.212;5.496;2024-02-26T03:41:03;12.27;;;6.60;;
69629;SDS011;56857;52.212;5.496;2024-02-26T03:43:28;11.83;;;6.97;;
69629;SDS011;56857;52.212;5.496;2024-02-26T03:45:53;12.63;;;7.20;;
69629;SDS011;56857;52.212;5.496;2024-02-26T03:48:19;13.40;;;6.40;;
69629;SDS011;56857;52.212;5.496;2024-02-26T03:50:44;13.37;;;6.60;;
69629;SDS011;56857;52.212;5.496;2024-02-26T03:53:09;13.10;;;6.80;;
69629;SDS011;56857;52.212;5.496;2024-02-26T03:55:34;11.43;;;6.67;;
69629;SDS011;56857;52.212;5.496;2024-02-26T03:58:00;14.25;;;7.03;;
69629;SDS011;56857;52.212;5.496;2024-02-26T04:00:25;12.35;;;7.32;;
69629;SDS011;56857;52.212;5.496;2024-02-26T04:02:50;13.30;;;7.03;;
69629;SDS011;56857;52.212;5.496;2024-02-26T04:05:16;14.03;;;7.57;;
69629;SDS011;56857;52.212;5.496;2024-02-26T04:07:41;14.23;;;7.10;;
69629;SDS011;56857;52.212;5.496;2024-02-26T04:10:09;13.13;;;6.70;;
69629;SDS011;56857;52.212;5.496;2024-02-26T04:12:35;13.93;;;6.93;;
69629;SDS011;56857;52.212;5.496;2024-02-26T04:15:00;11.40;;;6.80;;
69629;SDS011;56857;52.212;5.496;2024-02-26T04:17:26;13.40;;;7.43;;
69629;SDS011;56857;52.212;5.496;2024-02-26T04:19:51;12.47;;;7.27;;
69629;SDS011;56857;52.212;5.496;2024-02-26T04:22:16;14.33;;;7.40;;
69629;SDS011;56857;52.212;5.496;2024-02-26T04:24:41;13.68;;;6.97;;
69629;SDS011;56857;52.212;5.496;2024-02-26T04:27:07;12.43;;;7.33;;
69629;SDS011;56857;52.212;5.496;2024-02-26T04:29:32;14.23;;;7.67;;
69629;SDS011;56857;52.212;5.496;2024-02-26T04:31:57;14.50;;;7.10;;
69629;SDS011;56857;52.212;5.496;2024-02-26T04:34:22;12.13;;;7.10;;
69629;SDS011;56857;52.212;5.496;2024-02-26T04:36:47;13.57;;;7.37;;
69629;SDS011;56857;52.212;5.496;2024-02-26T04:39:13;15.40;;;8.00;;
69629;SDS011;56857;52.212;5.496;2024-02-26T04:41:38;16.73;;;7.45;;
69629;SDS011;56857;52.212;5.496;2024-02-26T04:44:03;16.63;;;8.83;;
69629;SDS011;56857;52.212;5.496;2024-02-26T04:46:29;17.43;;;8.83;;
69629;SDS011;56857;52.212;5.496;2024-02-26T04:48:54;15.60;;;8.37;;
69629;SDS011;56857;52.212;5.496;2024-02-26T04:51:19;15.50;;;9.00;;
69629;SDS011;56857;52.212;5.496;2024-02-26T04:53:44;16.17;;;8.20;;
69629;SDS011;56857;52.212;5.496;2024-02-26T04:56:10;14.52;;;8.02;;
69629;SDS011;56857;52.212;5.496;2024-02-26T04:58:35;15.35;;;8.60;;
69629;SDS011;56857;52.212;5.496;2024-02-26T05:01:00;14.80;;;8.03;;
69629;SDS011;56857;52.212;5.496;2024-02-26T05:03:25;15.77;;;8.55;;
69629;SDS011;56857;52.212;5.496;2024-02-26T05:05:51;14.80;;;7.90;;
69629;SDS011;56857;52.212;5.496;2024-02-26T05:08:16;14.33;;;7.87;;
69629;SDS011;56857;52.212;5.496;2024-02-26T05:10:41;15.53;;;8.90;;
69629;SDS011;56857;52.212;5.496;2024-02-26T05:13:06;15.23;;;8.53;;
69629;SDS011;56857;52.212;5.496;2024-02-26T05:15:32;15.13;;;7.78;;
69629;SDS011;56857;52.212;5.496;2024-02-26T05:17:58;15.73;;;8.85;;
69629;SDS011;56857;52.212;5.496;2024-02-26T05:20:23;16.98;;;8.27;;
69629;SDS011;56857;52.212;5.496;2024-02-26T05:22:49;18.08;;;9.00;;
69629;SDS011;56857;52.212;5.496;2024-02-26T05:25:14;14.23;;;8.15;;
69629;SDS011;56857;52.212;5.496;2024-02-26T05:27:40;16.88;;;9.40;;
69629;SDS011;56857;52.212;5.496;2024-02-26T05:30:06;15.35;;;8.20;;
69629;SDS011;56857;52.212;5.496;2024-02-26T05:32:32;16.17;;;9.15;;
69629;SDS011;56857;52.212;5.496;2024-02-26T05:34:57;15.37;;;8.40;;
69629;SDS011;56857;52.212;5.496;2024-02-26T05:37:23;16.97;;;8.70;;
69629;SDS011;56857;52.212;5.496;2024-02-26T05:39:48;15.73;;;8.45;;
69629;SDS011;56857;52.212;5.496;2024-02-26T05:42:13;17.97;;;9.13;;
69629;SDS011;56857;52.212;5.496;2024-02-26T05:44:38;17.67;;;9.03;;
69629;SDS011;56857;52.212;5.496;2024-02-26T05:47:04;18.57;;;8.77;;
69629;SDS011;56857;52.212;5.496;2024-02-26T05:49:29;16.57;;;9.17;;
69629;SDS011;56857;52.212;5.496;2024-02-26T05:51:54;17.10;;;9.47;;
69629;SDS011;56857;52.212;5.496;2024-02-26T05:54:19;20.70;;;10.53;;
69629;SDS011;56857;52.212;5.496;2024-02-26T05:56:44;17.77;;;9.33;;
69629;SDS011;56857;52.212;5.496;2024-02-26T05:59:10;17.20;;;9.53;;
69629;SDS011;56857;52.212;5.496;2024-02-26T06:01:35;18.57;;;9.90;;
69629;SDS011;56857;52.212;5.496;2024-02-26T06:04:00;17.08;;;8.63;;
69629;SDS011;56857;52.212;5.496;2024-02-26T06:06:25;19.30;;;9.77;;
69629;SDS011;56857;52.212;5.496;2024-02-26T06:08:51;18.37;;;9.47;;
69629;SDS011;56857;52.212;5.496;2024-02-26T06:11:16;18.30;;;9.27;;
69629;SDS011;56857;52.212;5.496;2024-02-26T06:13:41;19.70;;;9.93;;
69629;SDS011;56857;52.212;5.496;2024-02-26T06:16:07;20.20;;;9.77;;
69629;SDS011;56857;52.212;5.496;2024-02-26T06:18:33;20.17;;;9.98;;
69629;SDS011;56857;52.212;5.496;2024-02-26T06:20:58;18.85;;;9.18;;
69629;SDS011;56857;52.212;5.496;2024-02-26T06:23:23;20.05;;;10.15;;
69629;SDS011;56857;52.212;5.496;2024-02-26T06:25:49;21.33;;;9.90;;
69629;SDS011;56857;52.212;5.496;2024-02-26T06:28:14;18.27;;;9.87;;
69629;SDS011;56857;52.212;5.496;2024-02-26T06:30:39;20.30;;;10.50;;
69629;SDS011;56857;52.212;5.496;2024-02-26T06:33:04;23.17;;;10.40;;
69629;SDS011;56857;52.212;5.496;2024-02-26T06:35:30;23.13;;;10.40;;
69629;SDS011;56857;52.212;5.496;2024-02-26T06:37:55;22.30;;;11.00;;
69629;SDS011;56857;52.212;5.496;2024-02-26T06:40:20;20.85;;;11.07;;
69629;SDS011;56857;52.212;5.496;2024-02-26T06:42:45;20.60;;;10.73;;
69629;SDS011;56857;52.212;5.496;2024-02-26T06:45:11;23.65;;;11.55;;
69629;SDS011;56857;52.212;5.496;2024-02-26T06:47:36;23.40;;;11.27;;
69629;SDS011;56857;52.212;5.496;2024-02-26T06:50:01;29.38;;;12.70;;
69629;SDS011;56857;52.212;5.496;2024-02-26T06:52:27;24.13;;;10.85;;
69629;SDS011;56857;52.212;5.496;2024-02-26T06:54:52;24.33;;;11.93;;
69629;SDS011;56857;52.212;5.496;2024-02-26T06:57:19;25.05;;;12.10;;
69629;SDS011;56857;52.212;5.496;2024-02-26T06:59:47;26.98;;;12.20;;
69629;SDS011;56857;52.212;5.496;2024-02-26T07:08:17;30.77;;;14.27;;
69629;SDS011;56857;52.212;5.496;2024-02-26T07:13:46;29.40;;;13.02;;
69629;SDS011;56857;52.212;5.496;2024-02-26T07:19:14;31.65;;;15.00;;
69629;SDS011;56857;52.212;5.496;2024-02-26T07:24:42;26.13;;;13.48;;
69629;SDS011;56857;52.212;5.496;2024-02-26T07:30:10;32.58;;;15.02;;
69629;SDS011;56857;52.212;5.496;2024-02-26T07:32:36;33.08;;;14.45;;
69629;SDS011;56857;52.212;5.496;2024-02-26T07:35:01;31.80;;;15.17;;
69629;SDS011;56857;52.212;5.496;2024-02-26T07:37:26;28.95;;;14.30;;
69629;SDS011;56857;52.212;5.496;2024-02-26T07:39:51;28.23;;;14.43;;
69629;SDS011;56857;52.212;5.496;2024-02-26T07:42:17;28.60;;;14.47;;
69629;SDS011;56857;52.212;5.496;2024-02-26T07:44:42;30.30;;;15.77;;
69629;SDS011;56857;52.212;5.496;2024-02-26T07:47:07;28.90;;;13.00;;
69629;SDS011;56857;52.212;5.496;2024-02-26T07:49:34;28.45;;;14.13;;
69629;SDS011;56857;52.212;5.496;2024-02-26T07:51:59;30.50;;;15.73;;
69629;SDS011;56857;52.212;5.496;2024-02-26T07:54:24;29.20;;;15.63;;
69629;SDS011;56857;52.212;5.496;2024-02-26T07:56:49;27.85;;;13.88;;
69629;SDS011;56857;52.212;5.496;2024-02-26T07:59:15;24.67;;;13.18;;
69629;SDS011;56857;52.212;5.496;2024-02-26T08:01:40;22.77;;;11.67;;
69629;SDS011;56857;52.212;5.496;2024-02-26T08:04:05;21.77;;;12.00;;
69629;SDS011;56857;52.212;5.496;2024-02-26T08:06:30;22.97;;;11.57;;
69629;SDS011;56857;52.212;5.496;2024-02-26T08:08:56;22.13;;;10.43;;
69629;SDS011;56857;52.212;5.496;2024-02-26T08:11:21;20.83;;;11.07;;
69629;SDS011;56857;52.212;5.496;2024-02-26T08:13:46;20.13;;;10.30;;
69629;SDS011;56857;52.212;5.496;2024-02-26T08:16:11;17.00;;;9.18;;
69629;SDS011;56857;52.212;5.496;2024-02-26T08:18:37;17.58;;;9.13;;
69629;SDS011;56857;52.212;5.496;2024-02-26T08:21:02;17.45;;;10.30;;
69629;SDS011;56857;52.212;5.496;2024-02-26T08:23:27;17.83;;;9.50;;
69629;SDS011;56857;52.212;5.496;2024-02-26T08:25:53;19.00;;;10.07;;
69629;SDS011;56857;52.212;5.496;2024-02-26T08:28:18;16.90;;;9.53;;
69629;SDS011;56857;52.212;5.496;2024-02-26T08:30:43;16.13;;;8.30;;
69629;SDS011;56857;52.212;5.496;2024-02-26T08:33:09;14.38;;;8.00;;
69629;SDS011;56857;52.212;5.496;2024-02-26T08:35:34;17.55;;;9.10;;
69629;SDS011;56857;52.212;5.496;2024-02-26T08:37:59;17.10;;;9.30;;
69629;SDS011;56857;52.212;5.496;2024-02-26T08:40:25;16.53;;;8.97;;
69629;SDS011;56857;52.212;5.496;2024-02-26T08:42:50;16.77;;;8.07;;
69629;SDS011;56857;52.212;5.496;2024-02-26T08:45:15;16.27;;;8.43;;
69629;SDS011;56857;52.212;5.496;2024-02-26T08:47:40;12.85;;;7.30;;
69629;SDS011;56857;52.212;5.496;2024-02-26T08:50:06;14.10;;;6.90;;
69629;SDS011;56857;52.212;5.496;2024-02-26T08:52:31;14.85;;;7.63;;
69629;SDS011;56857;52.212;5.496;2024-02-26T08:54:57;15.30;;;7.75;;
69629;SDS011;56857;52.212;5.496;2024-02-26T08:57:22;14.97;;;7.87;;
69629;SDS011;56857;52.212;5.496;2024-02-26T08:59:47;17.48;;;8.38;;
69629;SDS011;56857;52.212;5.496;2024-02-26T09:02:13;16.75;;;9.00;;
69629;SDS011;56857;52.212;5.496;2024-02-26T09:04:38;16.08;;;8.57;;
69629;SDS011;56857;52.212;5.496;2024-02-26T09:07:03;19.00;;;9.43;;
69629;SDS011;56857;52.212;5.496;2024-02-26T09:09:28;13.30;;;7.27;;
69629;SDS011;56857;52.212;5.496;2024-02-26T09:11:54;15.52;;;7.43;;
69629;SDS011;56857;52.212;5.496;2024-02-26T09:14:19;14.45;;;7.88;;
69629;SDS011;56857;52.212;5.496;2024-02-26T09:16:44;15.00;;;7.40;;
69629;SDS011;56857;52.212;5.496;2024-02-26T09:19:10;13.40;;;7.23;;
69629;SDS011;56857;52.212;5.496;2024-02-26T09:21:35;12.43;;;6.53;;
69629;SDS011;56857;52.212;5.496;2024-02-26T09:24:00;13.70;;;7.20;;
69629;SDS011;56857;52.212;5.496;2024-02-26T09:26:25;15.57;;;7.17;;
69629;SDS011;56857;52.212;5.496;2024-02-26T09:28:50;13.53;;;7.00;;
69629;SDS011;56857;52.212;5.496;2024-02-26T09:31:17;13.38;;;6.57;;
69629;SDS011;56857;52.212;5.496;2024-02-26T09:33:42;13.32;;;6.80;;
69629;SDS011;56857;52.212;5.496;2024-02-26T09:36:08;13.00;;;6.47;;
69629;SDS011;56857;52.212;5.496;2024-02-26T09:38:33;14.18;;;6.57;;
69629;SDS011;56857;52.212;5.496;2024-02-26T09:40:58;12.17;;;6.40;;
69629;SDS011;56857;52.212;5.496;2024-02-26T09:43:24;11.23;;;5.75;;
69629;SDS011;56857;52.212;5.496;2024-02-26T09:45:53;12.77;;;6.57;;
69629;SDS011;56857;52.212;5.496;2024-02-26T09:48:19;13.13;;;5.90;;
69629;SDS011;56857;52.212;5.496;2024-02-26T09:50:45;11.80;;;5.90;;
69629;SDS011;56857;52.212;5.496;2024-02-26T09:53:11;10.88;;;5.78;;
69629;SDS011;56857;52.212;5.496;2024-02-26T09:55:37;11.77;;;5.80;;
69629;SDS011;56857;52.212;5.496;2024-02-26T09:58:03;11.68;;;6.22;;
69629;SDS011;56857;52.212;5.496;2024-02-26T10:00:30;13.20;;;6.22;;
69629;SDS011;56857;52.212;5.496;2024-02-26T10:02:56;10.18;;;4.97;;
69629;SDS011;56857;52.212;5.496;2024-02-26T10:05:22;12.82;;;5.60;;
69629;SDS011;56857;52.212;5.496;2024-02-26T10:07:49;11.00;;;5.63;;
69629;SDS011;56857;52.212;5.496;2024-02-26T10:10:15;11.80;;;5.80;;
69629;SDS011;56857;52.212;5.496;2024-02-26T10:12:44;11.65;;;6.25;;
69629;SDS011;56857;52.212;5.496;2024-02-26T10:15:09;11.90;;;6.23;;
69629;SDS011;56857;52.212;5.496;2024-02-26T10:17:35;11.70;;;5.78;;
69629;SDS011;56857;52.212;5.496;2024-02-26T10:20:10;12.32;;;5.45;;
69629;SDS011;56857;52.212;5.496;2024-02-26T10:22:36;11.18;;;5.45;;
69629;SDS011;56857;52.212;5.496;2024-02-26T10:25:02;12.13;;;5.22;;
69629;SDS011;56857;52.212;5.496;2024-02-26T10:27:28;10.90;;;5.57;;
69629;SDS011;56857;52.212;5.496;2024-02-26T10:29:54;10.07;;;5.28;;
69629;SDS011;56857;52.212;5.496;2024-02-26T10:32:21;12.93;;;6.10;;
69629;SDS011;56857;52.212;5.496;2024-02-26T10:34:47;11.85;;;6.18;;
69629;SDS011;56857;52.212;5.496;2024-02-26T10:37:12;10.90;;;5.77;;
69629;SDS011;56857;52.212;5.496;2024-02-26T10:39:37;11.27;;;5.60;;
69629;SDS011;56857;52.212;5.496;2024-02-26T10:42:12;10.77;;;5.60;;
69629;SDS011;56857;52.212;5.496;2024-02-26T10:44:39;11.07;;;5.55;;
69629;SDS011;56857;52.212;5.496;2024-02-26T10:47:05;11.57;;;6.05;;
69629;SDS011;56857;52.212;5.496;2024-02-26T10:49:32;11.77;;;5.50;;
69629;SDS011;56857;52.212;5.496;2024-02-26T10:52:00;10.68;;;5.90;;
69629;SDS011;56857;52.212;5.496;2024-02-26T10:54:26;12.23;;;6.32;;
69629;SDS011;56857;52.212;5.496;2024-02-26T10:56:53;11.10;;;5.95;;
69629;SDS011;56857;52.212;5.496;2024-02-26T10:59:21;11.48;;;6.05;;
69629;SDS011;56857;52.212;5.496;2024-02-26T11:01:47;12.52;;;6.20;;
69629;SDS011;56857;52.212;5.496;2024-02-26T11:04:13;10.65;;;6.70;;
69629;SDS011;56857;52.212;5.496;2024-02-26T11:06:40;10.77;;;5.60;;
69629;SDS011;56857;52.212;5.496;2024-02-26T11:09:06;11.85;;;5.80;;
69629;SDS011;56857;52.212;5.496;2024-02-26T11:11:33;11.43;;;6.03;;
69629;SDS011;56857;52.212;5.496;2024-02-26T11:13:58;10.20;;;5.63;;
69629;SDS011;56857;52.212;5.496;2024-02-26T11:16:26;13.10;;;6.75;;
69629;SDS011;56857;52.212;5.496;2024-02-26T11:21:55;11.70;;;5.45;;
69629;SDS011;56857;52.212;5.496;2024-02-26T11:27:34;12.13;;;6.13;;
69629;SDS011;56857;52.212;5.496;2024-02-26T11:33:07;9.20;;;4.85;;
69629;SDS011;56857;52.212;5.496;2024-02-26T11:38:35;9.95;;;5.63;;
69629;SDS011;56857;52.212;5.496;2024-02-26T11:44:03;11.63;;;6.00;;
69629;SDS011;56857;52.212;5.496;2024-02-26T11:46:30;10.10;;;5.95;;
69629;SDS011;56857;52.212;5.496;2024-02-26T11:49:00;11.10;;;6.10;;
69629;SDS011;56857;52.212;5.496;2024-02-26T11:51:27;12.30;;;6.53;;
69629;SDS011;56857;52.212;5.496;2024-02-26T11:53:57;12.02;;;6.28;;
69629;SDS011;56857;52.212;5.496;2024-02-26T11:56:22;11.20;;;5.63;;
69629;SDS011;56857;52.212;5.496;2024-02-26T11:58:48;10.32;;;5.35;;
69629;SDS011;56857;52.212;5.496;2024-02-26T12:04:07;12.52;;;5.47;;
69629;SDS011;56857;52.212;5.496;2024-02-26T12:06:55;11.18;;;6.80;;
69629;SDS011;56857;52.212;5.496;2024-02-26T12:09:41;12.15;;;7.07;;
69629;SDS011;56857;52.212;5.496;2024-02-26T12:14:40;13.00;;;7.18;;
69629;SDS011;56857;52.212;5.496;2024-02-26T12:17:19;12.07;;;6.43;;
69629;SDS011;56857;52.212;5.496;2024-02-26T12:19:48;10.48;;;5.90;;
69629;SDS011;56857;52.212;5.496;2024-02-26T12:22:13;10.23;;;4.93;;
69629;SDS011;56857;52.212;5.496;2024-02-26T12:24:39;10.50;;;6.05;;
69629;SDS011;56857;52.212;5.496;2024-02-26T12:27:04;12.43;;;6.03;;
69629;SDS011;56857;52.212;5.496;2024-02-26T12:29:29;11.27;;;6.03;;
69629;SDS011;56857;52.212;5.496;2024-02-26T12:31:54;12.00;;;5.60;;
69629;SDS011;56857;52.212;5.496;2024-02-26T12:34:20;12.35;;;6.32;;
69629;SDS011;56857;52.212;5.496;2024-02-26T12:36:45;10.85;;;5.95;;
69629;SDS011;56857;52.212;5.496;2024-02-26T12:39:10;12.57;;;6.13;;
69629;SDS011;56857;52.212;5.496;2024-02-26T12:41:37;10.88;;;5.95;;
69629;SDS011;56857;52.212;5.496;2024-02-26T12:44:03;11.02;;;5.85;;
69629;SDS011;56857;52.212;5.496;2024-02-26T12:46:28;11.60;;;6.30;;
69629;SDS011;56857;52.212;5.496;2024-02-26T12:48:58;9.48;;;5.60;;
69629;SDS011;56857;52.212;5.496;2024-02-26T12:51:23;12.20;;;6.60;;
69629;SDS011;56857;52.212;5.496;2024-02-26T12:53:53;12.38;;;6.13;;
69629;SDS011;56857;52.212;5.496;2024-02-26T12:56:20;12.88;;;7.45;;
69629;SDS011;56857;52.212;5.496;2024-02-26T12:58:46;13.60;;;7.50;;
69629;SDS011;56857;52.212;5.496;2024-02-26T13:01:14;12.40;;;8.05;;
69629;SDS011;56857;52.212;5.496;2024-02-26T13:03:41;15.75;;;6.45;;
69629;SDS011;56857;52.212;5.496;2024-02-26T13:06:07;12.48;;;7.60;;
69629;SDS011;56857;52.212;5.496;2024-02-26T13:08:33;11.30;;;5.38;;
69629;SDS011;56857;52.212;5.496;2024-02-26T13:10:59;12.63;;;6.05;;
69629;SDS011;56857;52.212;5.496;2024-02-26T13:13:25;11.77;;;6.53;;
69629;SDS011;56857;52.212;5.496;2024-02-26T13:15:50;11.40;;;5.47;;
69629;SDS011;56857;52.212;5.496;2024-02-26T13:18:27;11.82;;;6.22;;
69629;SDS011;56857;52.212;5.496;2024-02-26T13:20:52;12.00;;;6.38;;
69629;SDS011;56857;52.212;5.496;2024-02-26T13:23:17;10.60;;;5.17;;
69629;SDS011;56857;52.212;5.496;2024-02-26T13:25:43;10.97;;;5.73;;
69629;SDS011;56857;52.212;5.496;2024-02-26T13:30:34;11.10;;;5.40;;
69629;SDS011;56857;52.212;5.496;2024-02-26T13:33:07;12.37;;;5.50;;
69629;SDS011;56857;52.212;5.496;2024-02-26T13:35:36;12.32;;;5.78;;
69629;SDS011;56857;52.212;5.496;2024-02-26T13:38:01;11.88;;;6.47;;
69629;SDS011;56857;52.212;5.496;2024-02-26T13:40:26;12.73;;;5.90;;
69629;SDS011;56857;52.212;5.496;2024-02-26T13:42:51;11.07;;;5.30;;
69629;SDS011;56857;52.212;5.496;2024-02-26T13:45:17;10.37;;;5.00;;
69629;SDS011;56857;52.212;5.496;2024-02-26T13:47:42;10.23;;;5.10;;
69629;SDS011;56857;52.212;5.496;2024-02-26T13:50:07;11.73;;;6.03;;
69629;SDS011;56857;52.212;5.496;2024-02-26T13:52:32;11.23;;;5.63;;
69629;SDS011;56857;52.212;5.496;2024-02-26T13:54:58;9.40;;;5.20;;
69629;SDS011;56857;52.212;5.496;2024-02-26T13:57:23;9.60;;;4.63;;
69629;SDS011;56857;52.212;5.496;2024-02-26T13:59:48;10.82;;;5.78;;
69629;SDS011;56857;52.212;5.496;2024-02-26T14:02:13;9.77;;;5.45;;
69629;SDS011;56857;52.212;5.496;2024-02-26T14:04:39;9.60;;;5.07;;
69629;SDS011;56857;52.212;5.496;2024-02-26T14:07:04;9.43;;;4.93;;
69629;SDS011;56857;52.212;5.496;2024-02-26T14:09:30;9.05;;;5.32;;
69629;SDS011;56857;52.212;5.496;2024-02-26T14:11:55;12.02;;;5.85;;
69629;SDS011;56857;52.212;5.496;2024-02-26T14:14:20;10.47;;;5.83;;
69629;SDS011;56857;52.212;5.496;2024-02-26T14:16:46;8.07;;;5.17;;
69629;SDS011;56857;52.212;5.496;2024-02-26T14:19:11;10.60;;;5.27;;
69629;SDS011;56857;52.212;5.496;2024-02-26T14:21:36;9.88;;;5.93;;
69629;SDS011;56857;52.212;5.496;2024-02-26T14:24:01;10.70;;;5.70;;
69629;SDS011;56857;52.212;5.496;2024-02-26T14:26:27;9.17;;;4.77;;
69629;SDS011;56857;52.212;5.496;2024-02-26T14:28:52;10.17;;;4.90;;
69629;SDS011;56857;52.212;5.496;2024-02-26T14:31:17;9.57;;;4.67;;
69629;SDS011;56857;52.212;5.496;2024-02-26T14:33:43;9.43;;;5.22;;
69629;SDS011;56857;52.212;5.496;2024-02-26T14:36:08;10.18;;;5.25;;
69629;SDS011;56857;52.212;5.496;2024-02-26T14:38:34;9.73;;;4.97;;
69629;SDS011;56857;52.212;5.496;2024-02-26T14:40:59;8.80;;;4.57;;
69629;SDS011;56857;52.212;5.496;2024-02-26T14:43:24;7.93;;;3.60;;
69629;SDS011;56857;52.212;5.496;2024-02-26T14:45:49;8.90;;;4.80;;
69629;SDS011;56857;52.212;5.496;2024-02-26T14:48:15;8.60;;;3.77;;
69629;SDS011;56857;52.212;5.496;2024-02-26T14:50:40;10.20;;;4.35;;
69629;SDS011;56857;52.212;5.496;2024-02-26T14:53:05;7.60;;;3.53;;
69629;SDS011;56857;52.212;5.496;2024-02-26T14:55:30;8.33;;;3.57;;
69629;SDS011;56857;52.212;5.496;2024-02-26T14:57:56;6.97;;;3.60;;
69629;SDS011;56857;52.212;5.496;2024-02-26T15:00:21;7.77;;;3.80;;
69629;SDS011;56857;52.212;5.496;2024-02-26T15:02:46;7.77;;;3.87;;
69629;SDS011;56857;52.212;5.496;2024-02-26T15:05:11;10.73;;;4.23;;
69629;SDS011;56857;52.212;5.496;2024-02-26T15:07:37;9.10;;;4.18;;